createdAt,value
2017-04-04T00:00:45.927Z,20.03
2017-04-04T00:01:46.142Z,20.03
2017-04-04T00:02:46.203Z,20.08
2017-04-04T00:03:46.158Z,20.08
2017-04-04T00:04:46.168Z,20.11
2017-04-04T00:05:46.213Z,20.05
2017-04-04T00:06:45.866Z,20.03
2017-04-04T00:07:46.725Z,20.06
2017-04-04T00:08:46.178Z,20.08
2017-04-04T00:09:46.089Z,20.06
2017-04-04T00:10:46.203Z,20.13
2017-04-04T00:11:46.196Z,20.1
2017-04-04T00:12:46.302Z,20.02
2017-04-04T00:13:46.205Z,20.13
2017-04-04T00:14:46.220Z,19.99
2017-04-04T00:15:46.277Z,20.06
2017-04-04T00:16:46.281Z,20.05
2017-04-04T00:17:45.916Z,20.06
2017-04-04T00:18:46.943Z,20.06
2017-04-04T00:19:45.926Z,20.06
2017-04-04T00:20:46.338Z,20.06
2017-04-04T00:21:46.259Z,20.14
2017-04-04T00:22:46.304Z,20.02
2017-04-04T00:23:45.951Z,20.01
2017-04-04T00:24:46.322Z,20.02
2017-04-04T00:25:46.325Z,20.06
2017-04-04T00:26:46.059Z,20.1
2017-04-04T00:27:46.336Z,20.1
2017-04-04T00:28:46.298Z,20.02
2017-04-04T00:29:47.255Z,20.1
2017-04-04T00:30:46.354Z,20.01
2017-04-04T00:31:46.704Z,20.05
2017-04-04T00:32:46.314Z,20.05
2017-04-04T00:33:46.056Z,20.08
2017-04-04T00:34:46.319Z,20.01
2017-04-04T00:35:46.336Z,20.08
2017-04-04T00:36:46.342Z,20.06
2017-04-04T00:37:46.340Z,20.03
2017-04-04T00:38:46.350Z,20.08
2017-04-04T00:39:46.393Z,20.14
2017-04-04T00:40:46.958Z,20.05
2017-04-04T00:41:46.714Z,20.02
2017-04-04T00:42:47.169Z,20.02
2017-04-04T00:43:46.065Z,19.99
2017-04-04T00:44:46.471Z,19.98
2017-04-04T00:45:46.120Z,20.08
2017-04-04T00:46:46.436Z,19.95
2017-04-04T00:47:46.127Z,20.05
2017-04-04T00:48:46.441Z,20.03
2017-04-04T00:49:46.408Z,19.99
2017-04-04T00:50:46.402Z,20.06
2017-04-04T00:51:46.433Z,20.08
2017-04-04T00:52:46.509Z,20.02
2017-04-04T00:53:47.621Z,20.06
2017-04-04T00:54:46.423Z,20.01
2017-04-04T00:55:46.938Z,19.94
2017-04-04T00:56:46.471Z,20.03
2017-04-04T00:57:46.447Z,19.96
2017-04-04T00:58:46.517Z,19.95
2017-04-04T00:59:46.455Z,19.99
2017-04-04T01:00:46.457Z,19.95
2017-04-04T01:01:46.201Z,20.11
2017-04-04T01:02:46.464Z,20.01
2017-04-04T01:03:46.483Z,19.87
2017-04-04T01:04:47.762Z,19.95
2017-04-04T01:05:46.495Z,19.94
2017-04-04T01:06:47.280Z,19.98
2017-04-04T01:07:46.493Z,19.88
2017-04-04T01:08:46.294Z,19.87
2017-04-04T01:09:46.554Z,19.91
2017-04-04T01:10:46.523Z,19.94
2017-04-04T01:11:46.253Z,19.91
2017-04-04T01:12:46.577Z,19.88
2017-04-04T01:13:46.593Z,19.91
2017-04-04T01:14:46.537Z,19.88
2017-04-04T01:15:46.222Z,19.91
2017-04-04T01:16:46.552Z,19.91
2017-04-04T01:17:47.676Z,19.87
2017-04-04T01:18:46.557Z,19.87
2017-04-04T01:19:46.561Z,19.94
2017-04-04T01:20:46.563Z,20.02
2017-04-04T01:21:46.625Z,19.96
2017-04-04T01:22:46.626Z,19.99
2017-04-04T01:23:46.636Z,19.99
2017-04-04T01:24:46.738Z,19.96
2017-04-04T01:25:46.648Z,19.96
2017-04-04T01:26:46.280Z,19.96
2017-04-04T01:27:46.606Z,19.87
2017-04-04T01:28:46.398Z,19.98
2017-04-04T01:29:46.614Z,19.94
2017-04-04T01:30:46.625Z,19.95
2017-04-04T01:31:46.319Z,19.94
2017-04-04T01:32:46.633Z,19.94
2017-04-04T01:34:01.248Z,19.94
2017-04-04T01:34:46.692Z,19.94
2017-04-04T01:35:47.348Z,19.95
2017-04-04T01:36:46.655Z,20.01
2017-04-04T01:37:46.717Z,19.95
2017-04-04T01:38:46.350Z,20.05
2017-04-04T01:39:46.724Z,19.96
2017-04-04T01:40:46.725Z,19.94
2017-04-04T01:41:46.678Z,19.94
2017-04-04T01:42:46.682Z,20.01
2017-04-04T01:43:46.747Z,19.88
2017-04-04T01:44:46.383Z,19.88
2017-04-04T01:45:46.751Z,19.91
2017-04-04T01:46:47.361Z,19.91
2017-04-04T01:47:46.712Z,19.96
2017-04-04T01:48:47.408Z,19.99
2017-04-04T01:49:47.032Z,20.03
2017-04-04T01:50:46.769Z,19.94
2017-04-04T01:51:46.734Z,19.96
2017-04-04T01:52:46.786Z,19.94
2017-04-04T01:53:46.754Z,19.96
2017-04-04T01:54:46.436Z,20.03
2017-04-04T01:55:46.484Z,20.01
2017-04-04T01:56:46.810Z,19.94
2017-04-04T01:57:46.809Z,19.95
2017-04-04T01:58:46.449Z,19.95
2017-04-04T01:59:48.189Z,19.94
2017-04-04T02:00:46.824Z,20.01
2017-04-04T02:01:46.835Z,20.03
2017-04-04T02:02:46.578Z,19.91
2017-04-04T02:03:49.250Z,19.94
2017-04-04T02:04:46.545Z,19.99
2017-04-04T02:05:46.850Z,20.01
2017-04-04T02:06:46.852Z,19.95
2017-04-04T02:07:46.813Z,19.99
2017-04-04T02:08:46.873Z,19.98
2017-04-04T02:09:46.533Z,20.05
2017-04-04T02:10:48.557Z,19.96
2017-04-04T02:11:46.519Z,20.01
2017-04-04T02:12:46.530Z,20.01
2017-04-04T02:13:46.887Z,19.91
2017-04-04T02:14:46.582Z,19.99
2017-04-04T02:15:46.860Z,19.95
2017-04-04T02:16:46.854Z,19.87
2017-04-04T02:17:47.169Z,19.86
2017-04-04T02:18:46.882Z,19.84
2017-04-04T02:19:47.161Z,19.87
2017-04-04T02:20:46.882Z,19.91
2017-04-04T02:21:46.929Z,19.84
2017-04-04T02:22:46.577Z,19.8
2017-04-04T02:23:46.898Z,19.86
2017-04-04T02:24:47.010Z,19.78
2017-04-04T02:25:46.900Z,19.86
2017-04-04T02:26:47.027Z,19.77
2017-04-04T02:27:46.924Z,19.81
2017-04-04T02:28:46.969Z,19.84
2017-04-04T02:29:46.978Z,19.86
2017-04-04T02:30:47.478Z,19.81
2017-04-04T02:31:47.289Z,19.91
2017-04-04T02:32:46.937Z,19.99
2017-04-04T02:33:46.684Z,19.91
2017-04-04T02:34:46.963Z,19.86
2017-04-04T02:35:46.644Z,19.86
2017-04-04T02:36:46.957Z,19.94
2017-04-04T02:37:46.697Z,19.94
2017-04-04T02:38:46.975Z,19.99
2017-04-04T02:39:47.070Z,19.96
2017-04-04T02:40:46.719Z,19.87
2017-04-04T02:41:47.790Z,19.94
2017-04-04T02:42:47.394Z,19.91
2017-04-04T02:43:47.101Z,19.87
2017-04-04T02:44:46.995Z,19.94
2017-04-04T02:45:47.040Z,19.91
2017-04-04T02:46:47.006Z,19.86
2017-04-04T02:47:47.070Z,19.88
2017-04-04T02:48:47.067Z,19.87
2017-04-04T02:49:46.447Z,19.88
2017-04-04T02:50:47.035Z,19.94
2017-04-04T02:51:47.089Z,19.87
2017-04-04T02:52:48.262Z,19.87
2017-04-04T02:53:47.091Z,19.87
2017-04-04T02:54:47.599Z,19.83
2017-04-04T02:55:47.055Z,19.87
2017-04-04T02:56:47.119Z,19.84
2017-04-04T02:57:47.113Z,19.87
2017-04-04T02:58:47.225Z,19.81
2017-04-04T02:59:47.182Z,19.91
2017-04-04T03:00:47.095Z,19.83
2017-04-04T03:01:47.290Z,19.87
2017-04-04T03:02:46.780Z,19.87
2017-04-04T03:04:16.275Z,19.87
2017-04-04T03:04:47.200Z,19.83
2017-04-04T03:05:47.961Z,19.87
2017-04-04T03:06:46.801Z,19.86
2017-04-04T03:07:46.860Z,19.91
2017-04-04T03:08:47.123Z,19.87
2017-04-04T03:09:47.126Z,19.86
2017-04-04T03:10:46.872Z,19.84
2017-04-04T03:11:46.875Z,19.83
2017-04-04T03:12:47.240Z,19.86
2017-04-04T03:13:47.153Z,19.83
2017-04-04T03:14:46.577Z,19.87
2017-04-04T03:15:47.168Z,19.87
2017-04-04T03:16:48.267Z,19.84
2017-04-04T03:17:47.270Z,19.81
2017-04-04T03:18:47.237Z,19.73
2017-04-04T03:19:47.225Z,19.83
2017-04-04T03:20:46.929Z,19.78
2017-04-04T03:21:47.188Z,19.74
2017-04-04T03:22:47.243Z,19.71
2017-04-04T03:23:47.202Z,19.74
2017-04-04T03:24:46.635Z,19.68
2017-04-04T03:25:47.265Z,19.62
2017-04-04T03:26:47.263Z,19.73
2017-04-04T03:27:46.953Z,19.69
2017-04-04T03:28:47.272Z,19.61
2017-04-04T03:29:47.229Z,19.65
2017-04-04T03:30:47.344Z,19.61
2017-04-04T03:31:47.288Z,19.71
2017-04-04T03:32:46.933Z,19.68
2017-04-04T03:33:46.938Z,19.69
2017-04-04T03:34:47.312Z,19.81
2017-04-04T03:35:47.308Z,19.73
2017-04-04T03:36:47.500Z,19.77
2017-04-04T03:37:46.695Z,19.78
2017-04-04T03:38:47.320Z,19.71
2017-04-04T03:39:47.340Z,19.73
2017-04-04T03:40:47.285Z,19.74
2017-04-04T03:41:47.350Z,19.69
2017-04-04T03:42:47.391Z,19.77
2017-04-04T03:43:47.304Z,19.71
2017-04-04T03:44:46.789Z,19.81
2017-04-04T03:45:47.415Z,19.77
2017-04-04T03:46:46.997Z,19.71
2017-04-04T03:47:47.827Z,19.76
2017-04-04T03:48:47.329Z,19.71
2017-04-04T03:49:47.337Z,19.68
2017-04-04T03:50:47.384Z,19.68
2017-04-04T03:51:47.341Z,19.68
2017-04-04T03:52:47.399Z,19.71
2017-04-04T03:53:47.083Z,19.71
2017-04-04T03:54:46.780Z,19.76
2017-04-04T03:55:47.367Z,19.8
2017-04-04T03:56:47.665Z,19.71
2017-04-04T03:57:47.416Z,19.69
2017-04-04T03:58:48.335Z,19.81
2017-04-04T03:59:47.436Z,19.69
2017-04-04T04:00:47.790Z,19.74
2017-04-04T04:01:47.456Z,19.71
2017-04-04T04:02:46.772Z,19.68
2017-04-04T04:03:47.381Z,19.78
2017-04-04T04:04:47.405Z,19.81
2017-04-04T04:05:47.460Z,19.8
2017-04-04T04:06:47.098Z,19.66
2017-04-04T04:07:47.176Z,19.78
2017-04-04T04:08:47.479Z,19.8
2017-04-04T04:09:48.406Z,19.73
2017-04-04T04:10:47.440Z,19.71
2017-04-04T04:11:48.540Z,19.73
2017-04-04T04:12:47.182Z,19.77
2017-04-04T04:13:47.461Z,19.71
2017-04-04T04:14:47.572Z,19.8
2017-04-04T04:15:47.208Z,19.78
2017-04-04T04:16:47.160Z,19.73
2017-04-04T04:17:47.769Z,19.71
2017-04-04T04:18:47.523Z,19.76
2017-04-04T04:19:47.484Z,19.74
2017-04-04T04:20:47.224Z,19.74
2017-04-04T04:21:47.492Z,19.74
2017-04-04T04:22:49.073Z,19.74
2017-04-04T04:23:47.502Z,19.73
2017-04-04T04:24:47.514Z,19.68
2017-04-04T04:25:47.629Z,19.68
2017-04-04T04:26:47.212Z,19.74
2017-04-04T04:27:47.531Z,19.73
2017-04-04T04:28:47.588Z,19.68
2017-04-04T04:29:47.531Z,19.71
2017-04-04T04:30:47.586Z,19.63
2017-04-04T04:31:47.654Z,19.66
2017-04-04T04:32:47.607Z,19.62
2017-04-04T04:33:47.559Z,19.61
2017-04-04T04:34:47.561Z,19.62
2017-04-04T04:35:47.309Z,19.47
2017-04-04T04:36:47.304Z,19.54
2017-04-04T04:37:47.636Z,19.59
2017-04-04T04:38:47.587Z,19.66
2017-04-04T04:39:47.322Z,19.61
2017-04-04T04:40:47.594Z,19.65
2017-04-04T04:41:47.590Z,19.66
2017-04-04T04:42:47.756Z,19.61
2017-04-04T04:43:47.617Z,19.71
2017-04-04T04:44:47.764Z,19.68
2017-04-04T04:45:47.614Z,19.63
2017-04-04T04:46:46.997Z,19.63
2017-04-04T04:47:47.633Z,19.65
2017-04-04T04:48:47.631Z,19.71
2017-04-04T04:49:48.493Z,19.69
2017-04-04T04:50:47.687Z,19.71
2017-04-04T04:51:47.389Z,19.76
2017-04-04T04:52:47.390Z,19.76
2017-04-04T04:53:48.315Z,19.73
2017-04-04T04:54:47.731Z,19.73
2017-04-04T04:55:47.723Z,19.76
2017-04-04T04:56:47.679Z,19.71
2017-04-04T04:57:47.684Z,19.78
2017-04-04T04:58:47.680Z,19.73
2017-04-04T04:59:47.688Z,19.76
2017-04-04T05:00:48.594Z,19.77
2017-04-04T05:01:47.758Z,19.8
2017-04-04T05:02:47.441Z,19.77
2017-04-04T05:03:47.457Z,19.68
2017-04-04T05:04:47.402Z,19.68
2017-04-04T05:05:47.454Z,19.78
2017-04-04T05:06:48.378Z,19.68
2017-04-04T05:07:47.882Z,19.77
2017-04-04T05:08:47.719Z,19.8
2017-04-04T05:09:47.579Z,19.74
2017-04-04T05:10:47.487Z,19.78
2017-04-04T05:11:47.447Z,19.71
2017-04-04T05:12:47.760Z,19.77
2017-04-04T05:13:47.862Z,19.76
2017-04-04T05:14:47.451Z,19.69
2017-04-04T05:15:47.767Z,19.88
2017-04-04T05:16:47.821Z,19.77
2017-04-04T05:17:47.522Z,19.8
2017-04-04T05:18:47.531Z,19.86
2017-04-04T05:19:47.223Z,19.87
2017-04-04T05:20:47.842Z,19.83
2017-04-04T05:21:47.900Z,19.83
2017-04-04T05:22:47.540Z,19.86
2017-04-04T05:23:47.863Z,19.87
2017-04-04T05:24:48.813Z,19.84
2017-04-04T05:25:47.879Z,19.87
2017-04-04T05:26:48.182Z,19.86
2017-04-04T05:27:47.828Z,19.87
2017-04-04T05:28:47.840Z,19.94
2017-04-04T05:29:47.848Z,19.87
2017-04-04T05:30:47.580Z,19.95
2017-04-04T05:31:47.539Z,19.91
2017-04-04T05:32:48.364Z,19.88
2017-04-04T05:33:47.873Z,19.88
2017-04-04T05:34:47.916Z,19.92
2017-04-04T05:35:48.852Z,19.99
2017-04-04T05:36:47.619Z,19.94
2017-04-04T05:37:48.411Z,19.99
2017-04-04T05:38:47.884Z,19.94
2017-04-04T05:39:48.339Z,20.01
2017-04-04T05:40:48.017Z,19.95
2017-04-04T05:41:47.900Z,19.95
2017-04-04T05:42:47.315Z,19.98
2017-04-04T05:43:47.647Z,19.99
2017-04-04T05:44:47.603Z,19.98
2017-04-04T05:45:47.711Z,19.98
2017-04-04T05:46:47.976Z,19.99
2017-04-04T05:47:47.947Z,19.96
2017-04-04T05:48:49.749Z,20.06
2017-04-04T05:49:47.993Z,20.03
2017-04-04T05:50:49.078Z,20.06
2017-04-04T05:51:47.955Z,20.05
2017-04-04T05:52:47.959Z,20.1
2017-04-04T05:53:47.966Z,20.16
2017-04-04T05:54:48.030Z,20.21
2017-04-04T05:55:48.024Z,20.17
2017-04-04T05:56:47.981Z,20.28
2017-04-04T05:57:48.586Z,20.39
2017-04-04T05:58:48.048Z,20.38
2017-04-04T05:59:47.997Z,20.5
2017-04-04T06:00:47.701Z,20.58
2017-04-04T06:01:47.382Z,20.52
2017-04-04T06:02:47.772Z,20.61
2017-04-04T06:03:48.028Z,20.58
2017-04-04T06:04:47.811Z,20.64
2017-04-04T06:05:48.035Z,20.74
2017-04-04T06:06:48.035Z,20.73
2017-04-04T06:07:47.778Z,20.85
2017-04-04T06:08:49.110Z,20.84
2017-04-04T06:09:48.064Z,20.89
2017-04-04T06:10:49.044Z,20.92
2017-04-04T06:11:48.123Z,20.97
2017-04-04T06:12:48.138Z,21.07
2017-04-04T06:13:47.553Z,21.07
2017-04-04T06:14:47.768Z,21.07
2017-04-04T06:15:48.201Z,21.04
2017-04-04T06:16:48.146Z,21.04
2017-04-04T06:17:48.096Z,21.04
2017-04-04T06:18:48.215Z,21.06
2017-04-04T06:19:48.106Z,21.1
2017-04-04T06:20:48.116Z,21.24
2017-04-04T06:21:49.335Z,21.28
2017-04-04T06:22:48.121Z,21.54
2017-04-04T06:23:47.565Z,21.67
2017-04-04T06:24:47.882Z,21.9
2017-04-04T06:25:47.928Z,21.96
2017-04-04T06:26:48.158Z,22
2017-04-04T06:27:48.212Z,22.17
2017-04-04T06:28:47.895Z,22.17
2017-04-04T06:29:47.872Z,22.18
2017-04-04T06:30:48.236Z,22.18
2017-04-04T06:31:48.187Z,22.28
2017-04-04T06:32:47.876Z,22.36
2017-04-04T06:33:48.197Z,22.36
2017-04-04T06:34:48.608Z,22.45
2017-04-04T06:35:48.254Z,22.58
2017-04-04T06:36:47.999Z,22.68
2017-04-04T06:37:48.224Z,22.77
2017-04-04T06:38:48.271Z,22.85
2017-04-04T06:39:48.280Z,23.15
2017-04-04T06:40:48.249Z,23.42
2017-04-04T06:41:48.750Z,23.68
2017-04-04T06:42:48.295Z,23.88
2017-04-04T06:43:48.253Z,24.06
2017-04-04T06:44:48.272Z,24.2
2017-04-04T06:45:48.269Z,24.53
2017-04-04T06:46:48.286Z,24.76
2017-04-04T06:47:48.336Z,24.91
2017-04-04T06:48:48.387Z,25.14
2017-04-04T06:49:48.296Z,25.35
2017-04-04T06:50:48.353Z,25.25
2017-04-04T06:51:48.368Z,24.53
2017-04-04T06:52:49.217Z,23.55
2017-04-04T06:53:48.058Z,22.94
2017-04-04T06:54:48.527Z,22.49
2017-04-04T06:55:48.333Z,22.27
2017-04-04T06:56:48.340Z,22.14
2017-04-04T06:57:48.352Z,22.09
2017-04-04T06:58:48.098Z,21.96
2017-04-04T06:59:48.417Z,21.9
2017-04-04T07:00:48.365Z,21.9
2017-04-04T07:01:48.376Z,21.74
2017-04-04T07:02:48.376Z,21.75
2017-04-04T07:03:49.641Z,21.72
2017-04-04T07:04:48.127Z,21.79
2017-04-04T07:05:48.635Z,21.72
2017-04-04T07:06:48.464Z,21.64
2017-04-04T07:07:48.145Z,21.62
2017-04-04T07:08:48.461Z,21.62
2017-04-04T07:09:48.465Z,21.54
2017-04-04T07:10:48.547Z,21.62
2017-04-04T07:11:48.431Z,21.58
2017-04-04T07:12:48.488Z,21.53
2017-04-04T07:13:48.144Z,21.54
2017-04-04T07:14:50.179Z,21.54
2017-04-04T07:15:48.453Z,21.4
2017-04-04T07:16:49.363Z,21.44
2017-04-04T07:17:48.168Z,21.37
2017-04-04T07:18:48.533Z,21.47
2017-04-04T07:19:48.478Z,21.46
2017-04-04T07:20:48.583Z,21.4
2017-04-04T07:21:48.506Z,21.35
2017-04-04T07:22:50.751Z,21.4
2017-04-04T07:23:48.564Z,21.34
2017-04-04T07:24:48.624Z,21.43
2017-04-04T07:25:48.520Z,21.35
2017-04-04T07:26:48.518Z,21.29
2017-04-04T07:27:49.555Z,21.25
2017-04-04T07:28:50.345Z,21.31
2017-04-04T07:29:48.242Z,21.27
2017-04-04T07:30:48.540Z,21.27
2017-04-04T07:31:48.553Z,21.28
2017-04-04T07:32:48.609Z,21.28
2017-04-04T07:33:48.614Z,21.34
2017-04-04T07:34:48.622Z,21.17
2017-04-04T07:35:48.257Z,21.28
2017-04-04T07:36:48.914Z,21.34
2017-04-04T07:37:48.579Z,21.24
2017-04-04T07:38:48.602Z,21.25
2017-04-04T07:39:48.607Z,21.27
2017-04-04T07:40:48.611Z,21.25
2017-04-04T07:41:48.662Z,21.24
2017-04-04T07:42:48.611Z,21.31
2017-04-04T07:43:48.417Z,21.17
2017-04-04T07:44:48.630Z,21.22
2017-04-04T07:45:48.365Z,21.28
2017-04-04T07:46:48.696Z,21.25
2017-04-04T07:47:49.181Z,21.25
2017-04-04T07:48:48.644Z,21.29
2017-04-04T07:49:48.908Z,21.25
2017-04-04T07:50:48.662Z,21.19
2017-04-04T07:51:48.655Z,21.29
2017-04-04T07:52:48.350Z,21.28
2017-04-04T07:53:48.108Z,21.31
2017-04-04T07:54:48.468Z,21.22
2017-04-04T07:55:48.689Z,21.27
2017-04-04T07:56:48.440Z,21.27
2017-04-04T07:57:48.383Z,21.27
2017-04-04T07:58:49.855Z,21.27
2017-04-04T07:59:48.715Z,21.27
2017-04-04T08:00:49.256Z,21.29
2017-04-04T08:01:48.471Z,21.28
2017-04-04T08:02:48.836Z,21.31
2017-04-04T08:03:49.129Z,21.27
2017-04-04T08:04:48.730Z,21.22
2017-04-04T08:05:48.738Z,21.34
2017-04-04T08:06:48.440Z,21.25
2017-04-04T08:07:48.807Z,21.35
2017-04-04T08:08:48.807Z,21.31
2017-04-04T08:09:48.448Z,21.28
2017-04-04T08:10:48.827Z,21.29
2017-04-04T08:11:49.832Z,21.32
2017-04-04T08:12:48.253Z,21.32
2017-04-04T08:13:48.837Z,21.28
2017-04-04T08:14:48.164Z,21.25
2017-04-04T08:15:48.845Z,21.35
2017-04-04T08:16:48.498Z,21.32
2017-04-04T08:17:48.606Z,21.27
2017-04-04T08:18:48.830Z,21.29
2017-04-04T08:19:48.883Z,21.28
2017-04-04T08:20:48.562Z,21.34
2017-04-04T08:21:48.938Z,21.29
2017-04-04T08:22:50.253Z,21.32
2017-04-04T08:23:48.839Z,21.27
2017-04-04T08:24:48.921Z,21.22
2017-04-04T08:25:48.555Z,21.29
2017-04-04T08:26:48.600Z,21.27
2017-04-04T08:27:48.861Z,21.32
2017-04-04T08:28:48.612Z,21.38
2017-04-04T08:29:48.879Z,21.53
2017-04-04T08:30:48.574Z,23.17
2017-04-04T08:31:49.287Z,25.9
2017-04-04T08:32:49.006Z,27.9
2017-04-04T08:33:48.592Z,29.05
2017-04-04T08:34:49.964Z,29.67
2017-04-04T08:35:48.606Z,29.89
2017-04-04T08:36:48.931Z,30.13
2017-04-04T08:37:48.612Z,30.42
2017-04-04T08:38:49.008Z,30.46
2017-04-04T08:39:48.376Z,30.38
2017-04-04T08:40:49.013Z,30.54
2017-04-04T08:41:48.653Z,30.57
2017-04-04T08:42:49.998Z,30.75
2017-04-04T08:43:48.352Z,30.55
2017-04-04T08:44:49.297Z,30.89
2017-04-04T08:45:48.989Z,30.79
2017-04-04T08:46:49.064Z,30.77
2017-04-04T08:47:49.060Z,30.92
2017-04-04T08:48:48.773Z,30.79
2017-04-04T08:49:49.921Z,30.79
2017-04-04T08:50:49.045Z,30.61
2017-04-04T08:51:49.089Z,30.42
2017-04-04T08:52:49.051Z,30.19
2017-04-04T08:53:50.775Z,30.01
2017-04-04T08:54:49.127Z,29.55
2017-04-04T08:55:50.018Z,28.68
2017-04-04T08:56:49.085Z,27.14
2017-04-04T08:57:48.813Z,25.42
2017-04-04T08:58:48.467Z,24.39
2017-04-04T08:59:48.825Z,23.69
2017-04-04T09:00:49.193Z,23.32
2017-04-04T09:01:49.106Z,23.07
2017-04-04T09:02:49.319Z,22.86
2017-04-04T09:03:49.347Z,22.8
2017-04-04T09:04:48.909Z,22.67
2017-04-04T09:05:49.182Z,22.57
2017-04-04T09:06:48.504Z,22.49
2017-04-04T09:07:49.236Z,22.45
2017-04-04T09:08:48.885Z,22.33
2017-04-04T09:09:49.158Z,22.42
2017-04-04T09:10:48.912Z,22.3
2017-04-04T09:11:48.951Z,22.25
2017-04-04T09:12:49.224Z,22.35
2017-04-04T09:13:50.082Z,22.22
2017-04-04T09:14:49.192Z,22.24
2017-04-04T09:15:49.123Z,22.22
2017-04-04T09:16:49.201Z,22.17
2017-04-04T09:17:48.985Z,22.14
2017-04-04T09:18:49.205Z,22.06
2017-04-04T09:19:49.210Z,22.05
2017-04-04T09:20:49.275Z,22.15
2017-04-04T09:21:48.911Z,22.07
2017-04-04T09:22:49.278Z,22.06
2017-04-04T09:23:49.243Z,22.03
2017-04-04T09:24:49.264Z,22
2017-04-04T09:25:49.249Z,21.94
2017-04-04T09:26:50.420Z,22.03
2017-04-04T09:27:49.311Z,22.03
2017-04-04T09:28:49.765Z,21.86
2017-04-04T09:29:48.967Z,21.94
2017-04-04T09:30:49.329Z,21.92
2017-04-04T09:31:49.306Z,21.92
2017-04-04T09:32:49.343Z,21.9
2017-04-04T09:34:03.917Z,21.92
2017-04-04T09:34:48.997Z,21.91
2017-04-04T09:35:49.309Z,21.99
2017-04-04T09:36:49.316Z,21.91
2017-04-04T09:37:50.276Z,21.91
2017-04-04T09:38:49.379Z,21.92
2017-04-04T09:39:50.139Z,21.83
2017-04-04T09:40:49.393Z,21.88
2017-04-04T09:41:49.362Z,21.84
2017-04-04T09:42:49.359Z,21.98
2017-04-04T09:43:49.097Z,21.96
2017-04-04T09:44:49.163Z,21.94
2017-04-04T09:45:48.796Z,21.99
2017-04-04T09:46:49.171Z,21.92
2017-04-04T09:47:49.124Z,21.96
2017-04-04T09:48:49.078Z,21.9
2017-04-04T09:49:49.397Z,21.86
2017-04-04T09:50:50.457Z,21.83
2017-04-04T09:51:49.517Z,21.83
2017-04-04T09:52:49.516Z,21.84
2017-04-04T09:53:49.470Z,21.8
2017-04-04T09:54:49.438Z,21.86
2017-04-04T09:55:49.483Z,21.83
2017-04-04T09:56:49.179Z,21.82
2017-04-04T09:57:49.711Z,21.83
2017-04-04T09:58:49.458Z,21.77
2017-04-04T09:59:49.560Z,21.86
2017-04-04T10:00:49.467Z,21.8
2017-04-04T10:01:49.520Z,21.86
2017-04-04T10:02:49.534Z,21.82
2017-04-04T10:03:49.489Z,21.86
2017-04-04T10:04:49.487Z,21.72
2017-04-04T10:05:49.190Z,21.77
2017-04-04T10:06:49.608Z,21.74
2017-04-04T10:07:49.553Z,21.64
2017-04-04T10:08:50.221Z,21.61
2017-04-04T10:09:49.583Z,21.69
2017-04-04T10:10:49.561Z,21.69
2017-04-04T10:11:49.530Z,21.59
2017-04-04T10:12:49.598Z,21.72
2017-04-04T10:13:49.601Z,21.61
2017-04-04T10:14:49.605Z,21.61
2017-04-04T10:15:49.306Z,21.68
2017-04-04T10:16:49.618Z,21.71
2017-04-04T10:17:49.574Z,21.64
2017-04-04T10:18:49.576Z,21.71
2017-04-04T10:19:50.670Z,21.74
2017-04-04T10:20:49.653Z,21.72
2017-04-04T10:21:50.085Z,21.67
2017-04-04T10:22:49.333Z,21.67
2017-04-04T10:23:49.602Z,21.69
2017-04-04T10:24:49.610Z,21.68
2017-04-04T10:25:49.617Z,21.75
2017-04-04T10:26:49.672Z,21.62
2017-04-04T10:27:49.679Z,21.64
2017-04-04T10:28:49.367Z,21.67
2017-04-04T10:29:49.697Z,21.72
2017-04-04T10:30:49.645Z,21.72
2017-04-04T10:31:49.399Z,21.72
2017-04-04T10:32:50.746Z,21.77
2017-04-04T10:33:49.664Z,21.69
2017-04-04T10:34:49.466Z,21.72
2017-04-04T10:35:49.415Z,21.75
2017-04-04T10:36:49.372Z,21.74
2017-04-04T10:37:49.751Z,21.69
2017-04-04T10:38:49.697Z,21.74
2017-04-04T10:39:49.078Z,21.79
2017-04-04T10:40:49.505Z,21.71
2017-04-04T10:41:49.810Z,21.74
2017-04-04T10:42:49.409Z,21.74
2017-04-04T10:43:51.504Z,21.71
2017-04-04T10:44:49.729Z,21.67
2017-04-04T10:45:49.429Z,21.77
2017-04-04T10:46:49.536Z,21.67
2017-04-04T10:47:49.534Z,21.82
2017-04-04T10:48:49.750Z,21.77
2017-04-04T10:49:49.773Z,21.79
2017-04-04T10:50:49.138Z,21.75
2017-04-04T10:51:49.560Z,21.75
2017-04-04T10:52:50.468Z,21.77
2017-04-04T10:53:49.524Z,21.8
2017-04-04T10:54:49.901Z,21.74
2017-04-04T10:55:49.534Z,21.71
2017-04-04T10:56:49.488Z,21.72
2017-04-04T10:57:49.879Z,21.75
2017-04-04T10:58:49.811Z,21.74
2017-04-04T10:59:49.870Z,21.71
2017-04-04T11:00:49.838Z,21.75
2017-04-04T11:01:49.933Z,21.74
2017-04-04T11:02:49.887Z,21.69
2017-04-04T11:03:51.092Z,21.69
2017-04-04T11:04:49.908Z,21.67
2017-04-04T11:05:50.216Z,21.59
2017-04-04T11:06:49.919Z,21.64
2017-04-04T11:07:49.969Z,21.67
2017-04-04T11:08:49.881Z,21.65
2017-04-04T11:09:49.934Z,21.68
2017-04-04T11:10:49.674Z,21.56
2017-04-04T11:11:49.891Z,21.62
2017-04-04T11:12:49.649Z,21.62
2017-04-04T11:13:49.902Z,21.61
2017-04-04T11:14:51.369Z,21.68
2017-04-04T11:15:49.917Z,21.64
2017-04-04T11:16:50.608Z,21.61
2017-04-04T11:17:50.033Z,21.65
2017-04-04T11:18:49.946Z,21.64
2017-04-04T11:19:49.938Z,21.65
2017-04-04T11:20:49.698Z,21.62
2017-04-04T11:21:50.010Z,21.62
2017-04-04T11:22:50.012Z,21.65
2017-04-04T11:23:50.072Z,21.69
2017-04-04T11:24:50.024Z,21.65
2017-04-04T11:25:50.023Z,21.61
2017-04-04T11:26:50.042Z,21.64
2017-04-04T11:27:50.797Z,21.65
2017-04-04T11:28:49.996Z,21.71
2017-04-04T11:29:50.055Z,21.64
2017-04-04T11:30:50.015Z,21.71
2017-04-04T11:31:50.119Z,21.68
2017-04-04T11:32:50.117Z,21.64
2017-04-04T11:33:49.718Z,21.62
2017-04-04T11:34:50.083Z,21.65
2017-04-04T11:35:49.778Z,21.65
2017-04-04T11:36:50.144Z,21.71
2017-04-04T11:37:50.108Z,21.68
2017-04-04T11:38:50.061Z,21.62
2017-04-04T11:39:49.747Z,21.69
2017-04-04T11:40:50.131Z,21.64
2017-04-04T11:41:49.767Z,21.67
2017-04-04T11:42:50.084Z,21.77
2017-04-04T11:43:49.775Z,21.71
2017-04-04T11:44:50.097Z,21.67
2017-04-04T11:45:49.785Z,21.74
2017-04-04T11:46:50.166Z,21.62
2017-04-04T11:47:50.413Z,21.68
2017-04-04T11:48:50.113Z,21.67
2017-04-04T11:49:50.181Z,21.64
2017-04-04T11:50:49.820Z,21.71
2017-04-04T11:51:49.826Z,21.61
2017-04-04T11:52:50.137Z,21.67
2017-04-04T11:53:50.558Z,21.62
2017-04-04T11:54:50.199Z,21.67
2017-04-04T11:55:49.945Z,21.64
2017-04-04T11:56:50.349Z,21.68
2017-04-04T11:57:50.275Z,21.65
2017-04-04T11:58:50.724Z,21.61
2017-04-04T11:59:50.240Z,21.62
2017-04-04T12:00:50.552Z,21.62
2017-04-04T12:01:50.412Z,21.69
2017-04-04T12:02:49.886Z,21.59
2017-04-04T12:03:50.257Z,21.59
2017-04-04T12:04:50.270Z,21.67
2017-04-04T12:05:50.289Z,21.67
2017-04-04T12:06:50.009Z,21.67
2017-04-04T12:07:50.332Z,21.59
2017-04-04T12:08:49.623Z,21.65
2017-04-04T12:09:50.041Z,21.65
2017-04-04T12:10:50.245Z,21.62
2017-04-04T12:11:50.902Z,21.61
2017-04-04T12:12:50.315Z,21.62
2017-04-04T12:13:49.952Z,21.52
2017-04-04T12:14:50.417Z,21.56
2017-04-04T12:15:50.280Z,21.61
2017-04-04T12:16:50.292Z,21.58
2017-04-04T12:17:50.638Z,21.53
2017-04-04T12:18:50.356Z,21.62
2017-04-04T12:19:50.373Z,21.53
2017-04-04T12:20:50.377Z,21.52
2017-04-04T12:21:50.366Z,21.53
2017-04-04T12:22:49.742Z,21.49
2017-04-04T12:23:50.334Z,21.52
2017-04-04T12:24:50.347Z,21.59
2017-04-04T12:25:50.024Z,21.54
2017-04-04T12:26:50.514Z,21.58
2017-04-04T12:27:50.352Z,21.54
2017-04-04T12:28:50.471Z,21.65
2017-04-04T12:29:50.413Z,21.64
2017-04-04T12:30:50.378Z,21.5
2017-04-04T12:31:50.211Z,21.56
2017-04-04T12:32:50.437Z,21.52
2017-04-04T12:33:50.927Z,21.64
2017-04-04T12:34:50.134Z,21.54
2017-04-04T12:35:50.448Z,21.61
2017-04-04T12:36:50.403Z,21.69
2017-04-04T12:37:50.415Z,21.64
2017-04-04T12:38:50.469Z,21.56
2017-04-04T12:39:50.468Z,21.56
2017-04-04T12:40:50.121Z,21.65
2017-04-04T12:41:50.440Z,21.64
2017-04-04T12:42:51.922Z,21.62
2017-04-04T12:43:50.143Z,21.56
2017-04-04T12:44:50.719Z,21.67
2017-04-04T12:45:50.506Z,21.61
2017-04-04T12:46:50.615Z,21.65
2017-04-04T12:47:50.568Z,21.62
2017-04-04T12:48:50.231Z,21.65
2017-04-04T12:49:52.186Z,21.68
2017-04-04T12:50:50.325Z,21.65
2017-04-04T12:51:50.190Z,21.69
2017-04-04T12:52:50.513Z,21.64
2017-04-04T12:53:51.351Z,21.68